Time;durP1;ratioP1;P1;durP2;ratioP2;P2;SDS_P1;SDS_P2;PMS_P1;PMS_P2;Temp;Humidity;BMP_temperature;BMP_pressure;BME280_temperature;BME280_humidity;BME280_pressure;Samples;Min_cycle;Max_cycle;Signal;HPM_P1;HPM_P2
2021/12/21 00:00:31;;;;;;;6.50;2.70;;;;;;;5.88;51.10;94749.47;4973046;28;20573;-76
2021/12/21 00:02:58;;;;;;;3.57;2.73;;;;;;;5.87;51.00;94752.91;4972883;28;20221;-76
2021/12/21 00:05:28;;;;;;;3.20;2.47;;;;;;;5.79;51.11;94735.69;4973435;28;20280;-79
2021/12/21 00:07:58;;;;;;;4.03;2.77;;;;;;;5.78;51.08;94736.59;4973155;28;20588;-80
2021/12/21 00:10:28;;;;;;;3.10;2.63;;;;;;;5.81;51.25;94738.91;4973329;28;20698;-78
2021/12/21 00:13:05;;;;;;;2.97;2.50;;;;;;;5.89;51.06;94751.88;4955862;28;20240;-78
2021/12/21 00:15:42;;;;;;;3.30;2.73;;;;;;;5.90;51.20;94750.97;4973579;28;20213;-83
2021/12/21 00:18:20;;;;;;;3.03;2.60;;;;;;;5.69;51.20;94722.00;4973129;28;20192;-83
2021/12/21 00:20:57;;;;;;;3.37;2.67;;;;;;;5.94;51.43;94754.13;4973597;28;20201;-78
2021/12/21 00:23:38;;;;;;;3.03;2.70;;;;;;;5.96;51.43;94763.25;4972831;28;20726;-80
2021/12/21 00:26:08;;;;;;;2.80;2.60;;;;;;;5.97;51.71;94762.34;4972202;28;20193;-80
2021/12/21 00:28:41;;;;;;;2.93;2.63;;;;;;;5.99;51.74;94767.28;4973167;28;20197;-79
2021/12/21 00:31:08;;;;;;;3.17;2.80;;;;;;;6.02;51.71;94777.25;4973306;28;20285;-81
2021/12/21 00:33:39;;;;;;;5.83;3.00;;;;;;;6.04;51.84;94772.84;4973417;28;20193;-83
2021/12/21 00:36:07;;;;;;;3.37;2.90;;;;;;;6.05;51.76;94771.16;4973219;28;20189;-78
2021/12/21 00:38:35;;;;;;;3.30;2.50;;;;;;;6.05;51.79;94782.13;4973076;28;20706;-80
2021/12/21 00:41:02;;;;;;;4.60;2.80;;;;;;;6.05;51.68;94776.22;4973115;28;20197;-83
2021/12/21 00:43:29;;;;;;;3.27;2.90;;;;;;;6.06;51.80;94776.09;4972689;28;20259;-81
2021/12/21 00:45:56;;;;;;;3.80;2.70;;;;;;;6.09;51.83;94780.13;4973432;28;20194;-77
2021/12/21 00:48:27;;;;;;;3.10;2.90;;;;;;;6.01;51.59;94768.00;4972813;28;20201;-81
2021/12/21 00:50:54;;;;;;;3.10;2.80;;;;;;;6.11;51.96;94791.00;4972921;28;20197;-83
2021/12/21 00:53:22;;;;;;;3.33;3.03;;;;;;;6.10;52.04;94786.88;4972603;28;20256;-80
2021/12/21 00:55:49;;;;;;;3.57;2.80;;;;;;;6.08;52.24;94789.50;4972692;28;20190;-81
2021/12/21 00:58:16;;;;;;;3.27;2.87;;;;;;;6.07;52.27;94789.59;4972416;28;20248;-85
2021/12/21 01:00:44;;;;;;;4.80;3.70;;;;;;;6.03;52.52;94787.28;4973003;28;20186;-83
2021/12/21 01:03:13;;;;;;;3.87;2.87;;;;;;;5.67;52.56;94722.13;4987357;28;20244;-86
2021/12/21 01:05:47;;;;;;;3.73;2.70;;;;;;;6.00;52.76;94777.38;4992422;28;20213;-80
2021/12/21 01:08:18;;;;;;;3.10;2.80;;;;;;;6.01;52.70;94781.50;4992008;28;20189;-80
2021/12/21 01:11:04;;;;;;;3.37;3.00;;;;;;;6.01;52.77;94778.16;4991832;28;20189;-81
2021/12/21 01:13:44;;;;;;;3.33;3.10;;;;;;;5.98;52.57;94784.25;4991239;28;20291;-86
2021/12/21 01:16:25;;;;;;;3.20;2.90;;;;;;;5.88;52.64;94768.03;4991905;28;20181;-83
2021/12/21 01:19:05;;;;;;;4.63;3.07;;;;;;;5.91;52.77;94777.94;4991701;28;20627;-81
2021/12/21 01:21:37;;;;;;;4.70;3.67;;;;;;;5.88;53.01;94783.25;4991287;28;20228;-80
2021/12/21 01:24:27;;;;;;;7.20;5.67;;;;;;;5.87;53.07;94781.66;4991561;28;20623;-82
2021/12/21 01:27:11;;;;;;;9.27;6.57;;;;;;;5.71;53.30;94756.53;4991011;28;20243;-81
2021/12/21 01:29:48;;;;;;;11.53;7.43;;;;;;;5.81;53.17;94778.72;4990852;28;20687;-78
2021/12/21 01:32:22;;;;;;;6.03;5.43;;;;;;;5.46;53.19;94734.56;4991138;28;20185;-80
2021/12/21 01:34:58;;;;;;;8.50;6.50;;;;;;;5.72;53.32;94783.50;4991734;28;20284;-77
2021/12/21 01:37:32;;;;;;;8.07;5.37;;;;;;;5.71;53.41;94783.63;4992209;28;20197;-77
2021/12/21 01:40:13;;;;;;;7.83;5.20;;;;;;;5.68;52.99;94784.63;4996666;28;20199;-78
2021/12/21 01:43:06;;;;;;;5.80;4.60;;;;;;;5.66;52.68;94790.75;4994076;28;20307;-79
2021/12/21 01:51:03;;;;;;;6.13;4.87;;;;;;;5.31;52.17;94752.56;4991029;28;20204;-80
2021/12/21 01:53:30;;;;;;;4.37;3.80;;;;;;;5.59;52.12;94790.34;4990673;28;20193;-78
2021/12/21 01:55:57;;;;;;;4.93;4.07;;;;;;;5.25;52.02;94741.91;4990791;28;20200;-79
2021/12/21 01:58:25;;;;;;;4.60;3.60;;;;;;;5.49;52.05;94774.94;4990774;28;20196;-83
2021/12/21 02:00:52;;;;;;;3.83;3.27;;;;;;;5.56;51.80;94788.00;4991256;28;20185;-80
2021/12/21 02:03:19;;;;;;;4.00;3.13;;;;;;;5.34;51.68;94752.34;4990874;28;20685;-76
2021/12/21 02:05:46;;;;;;;3.87;3.43;;;;;;;5.53;51.75;94786.50;4990502;28;20664;-76
2021/12/21 02:08:13;;;;;;;3.80;3.50;;;;;;;5.52;51.20;94786.59;4990632;28;20203;-80
2021/12/21 02:10:41;;;;;;;3.73;3.40;;;;;;;5.51;51.37;94787.50;4990720;28;20680;-79
2021/12/21 02:13:07;;;;;;;3.10;2.90;;;;;;;5.20;51.29;94745.69;4990286;28;20700;-77
2021/12/21 02:15:36;;;;;;;3.70;3.40;;;;;;;5.48;51.44;94783.47;4990231;28;20655;-78
2021/12/21 02:18:34;;;;;;;4.77;2.93;;;;;;;5.49;51.33;94782.56;4990518;28;20193;-77
2021/12/21 02:21:13;;;;;;;3.03;2.77;;;;;;;5.48;51.31;94783.47;4990644;28;20673;-78
2021/12/21 02:23:41;;;;;;;4.33;3.47;;;;;;;5.46;51.11;94775.16;4990425;28;20703;-79
2021/12/21 02:29:11;;;;;;;4.53;3.47;;;;;;;5.29;50.89;94755.19;4987537;28;20197;-87
2021/12/21 02:31:40;;;;;;;2.97;2.73;;;;;;;5.39;50.86;94785.81;4991594;28;20195;-85
2021/12/21 02:34:08;;;;;;;3.00;2.70;;;;;;;5.38;50.71;94784.19;4993118;28;20197;-77
2021/12/21 02:36:37;;;;;;;2.93;2.73;;;;;;;5.38;50.63;94786.72;4993923;28;20189;-84
2021/12/21 02:39:07;;;;;;;2.50;2.30;;;;;;;5.39;50.63;94785.81;4998138;28;20201;-84
2021/12/21 02:41:34;;;;;;;2.83;2.57;;;;;;;5.40;50.50;94795.88;5000929;28;20189;-84
2021/12/21 02:44:01;;;;;;;3.07;2.30;;;;;;;4.85;50.56;94705.78;4995663;28;20231;-79
2021/12/21 02:46:27;;;;;;;2.90;2.60;;;;;;;5.41;50.50;94797.47;4992648;28;20196;-79
2021/12/21 02:48:55;;;;;;;3.13;2.50;;;;;;;4.91;50.37;94715.50;4993833;28;20208;-80
2021/12/21 02:51:22;;;;;;;3.17;2.97;;;;;;;5.42;50.58;94800.81;4993878;28;20725;-79
2021/12/21 02:53:51;;;;;;;2.83;2.60;;;;;;;5.31;50.46;94775.38;4963446;28;20190;-82
2021/12/21 02:56:18;;;;;;;2.40;2.20;;;;;;;5.14;50.31;94762.13;4975425;28;20240;-81
2021/12/21 02:58:45;;;;;;;2.60;2.40;;;;;;;5.41;50.43;94792.41;4974683;28;20201;-83
2021/12/21 03:01:13;;;;;;;3.27;2.67;;;;;;;5.37;50.37;94785.13;4977506;28;20201;-84
2021/12/21 03:03:40;;;;;;;2.70;2.50;;;;;;;5.48;50.57;94797.84;4983517;28;20308;-86
2021/12/21 03:06:12;;;;;;;3.57;2.87;;;;;;;5.12;50.49;94742.84;4980472;28;20672;-84
2021/12/21 03:08:42;;;;;;;3.57;3.00;;;;;;;5.36;50.43;94776.69;4975376;28;20201;-82
2021/12/21 03:11:18;;;;;;;4.83;2.97;;;;;;;5.51;50.45;94811.16;4975299;28;20668;-83
2021/12/21 03:14:03;;;;;;;4.17;3.00;;;;;;;5.51;50.51;94806.06;4975449;28;20277;-80
2021/12/21 03:16:34;;;;;;;3.10;2.90;;;;;;;5.44;50.41;94801.50;4975651;28;20248;-86
2021/12/21 03:19:01;;;;;;;4.60;2.83;;;;;;;5.52;50.27;94809.41;4975406;28;20201;-80
2021/12/21 03:21:28;;;;;;;3.03;2.77;;;;;;;5.52;50.23;94807.69;4975068;28;20190;-82
2021/12/21 03:23:56;;;;;;;4.20;3.80;;;;;;;5.43;50.21;94803.25;4974460;28;20225;-77
2021/12/21 03:26:25;;;;;;;3.70;3.33;;;;;;;5.50;50.14;94804.47;4974479;28;20204;-81
2021/12/21 03:28:52;;;;;;;3.43;3.13;;;;;;;5.48;50.22;94796.16;4974493;28;20190;-83
2021/12/21 03:31:19;;;;;;;3.80;3.47;;;;;;;5.24;50.05;94760.59;4973609;28;20196;-82
2021/12/21 03:33:46;;;;;;;4.93;3.20;;;;;;;5.49;49.96;94794.44;4973822;28;20565;-82
2021/12/21 03:36:16;;;;;;;3.40;3.10;;;;;;;5.35;49.73;94775.06;4973946;28;20198;-84
2021/12/21 03:38:48;;;;;;;3.47;3.00;;;;;;;5.48;49.63;94798.69;4973753;28;20188;-83
2021/12/21 03:41:16;;;;;;;3.10;2.90;;;;;;;5.49;49.45;94807.13;4974066;28;20190;-81
2021/12/21 03:43:44;;;;;;;2.67;2.47;;;;;;;5.47;49.54;94811.47;4973961;28;20222;-82
2021/12/21 03:46:13;;;;;;;2.93;2.73;;;;;;;5.47;49.43;94814.00;4974049;28;20206;-80
2021/12/21 03:48:42;;;;;;;3.13;2.50;;;;;;;5.46;49.31;94820.81;4973660;28;20186;-81
2021/12/21 03:51:10;;;;;;;2.67;2.47;;;;;;;5.48;49.43;94820.69;4973858;28;20568;-78
2021/12/21 03:53:38;;;;;;;2.90;2.60;;;;;;;5.42;49.20;94814.31;4973624;28;20638;-79
2021/12/21 03:56:22;;;;;;;4.60;2.40;;;;;;;5.48;49.23;94820.69;4973676;28;20197;-77
2021/12/21 03:58:51;;;;;;;3.20;2.83;;;;;;;5.48;48.99;94829.13;4973474;28;20186;-76
2021/12/21 04:01:18;;;;;;;2.30;2.10;;;;;;;5.47;49.07;94827.47;4971966;28;20614;-78
2021/12/21 04:03:45;;;;;;;4.37;2.57;;;;;;;5.48;48.83;94830.84;4972892;28;20217;-78
2021/12/21 04:06:12;;;;;;;3.27;2.10;;;;;;;5.35;48.81;94813.09;4973353;28;20268;-77
2021/12/21 04:08:38;;;;;;;2.90;2.70;;;;;;;5.49;48.64;94838.34;4972914;28;20194;-77
2021/12/21 04:11:05;;;;;;;2.30;2.20;;;;;;;5.20;48.84;94798.94;4973359;28;20229;-81
2021/12/21 04:13:32;;;;;;;3.57;2.40;;;;;;;5.41;48.59;94830.44;4972833;28;20201;-78
2021/12/21 04:16:03;;;;;;;2.80;2.23;;;;;;;5.41;48.46;94827.91;4972910;28;20586;-77
2021/12/21 04:18:34;;;;;;;2.50;2.30;;;;;;;5.48;48.56;94841.81;4973300;28;20194;-77
2021/12/21 04:21:02;;;;;;;2.40;2.20;;;;;;;5.48;48.51;94841.81;4972619;28;20201;-76
2021/12/21 04:23:29;;;;;;;2.37;2.17;;;;;;;5.50;48.56;94844.22;4972963;28;20213;-77
2021/12/21 04:25:55;;;;;;;2.23;2.03;;;;;;;5.50;48.52;94844.22;4973125;28;20590;-79
2021/12/21 04:28:22;;;;;;;2.93;2.37;;;;;;;5.26;48.80;94811.97;4972904;28;20196;-78
2021/12/21 04:30:49;;;;;;;2.27;2.13;;;;;;;5.49;48.52;94848.50;4972790;28;20194;-79
2021/12/21 04:33:17;;;;;;;3.07;2.40;;;;;;;5.20;48.52;94801.47;4972839;28;20209;-76
2021/12/21 04:35:44;;;;;;;3.50;2.23;;;;;;;5.38;48.31;94828.09;4972299;28;20205;-78
2021/12/21 04:38:20;;;;;;;2.30;2.10;;;;;;;5.49;48.58;94835.00;4972548;28;20685;-78
2021/12/21 04:40:50;;;;;;;2.53;2.30;;;;;;;5.41;48.10;94822.03;4972565;28;20221;-76
2021/12/21 04:43:17;;;;;;;4.00;2.80;;;;;;;5.39;48.13;94831.44;4972341;28;20206;-79
2021/12/21 04:45:44;;;;;;;2.40;2.20;;;;;;;5.35;48.28;94830.84;4973059;28;20208;-77
2021/12/21 04:48:11;;;;;;;2.57;2.37;;;;;;;5.39;48.20;94847.47;4973229;28;20326;-76
2021/12/21 04:50:39;;;;;;;2.70;2.50;;;;;;;5.37;48.13;94856.91;4972104;28;20208;-78
2021/12/21 04:53:06;;;;;;;3.80;2.47;;;;;;;5.34;48.07;94846.97;4972424;28;20585;-78
2021/12/21 04:55:33;;;;;;;2.50;2.30;;;;;;;4.85;47.88;94784.34;4972179;28;20194;-78
2021/12/21 04:58:00;;;;;;;5.47;2.60;;;;;;;5.27;47.89;94859.25;4972932;28;20189;-77
2021/12/21 05:00:27;;;;;;;3.63;2.33;;;;;;;4.95;47.85;94818.28;4973093;28;20288;-84
2021/12/21 05:02:54;;;;;;;3.23;2.10;;;;;;;5.04;47.88;94843.00;4972537;28;20212;-77
2021/12/21 05:05:21;;;;;;;2.30;2.10;;;;;;;5.18;47.91;94864.94;4973137;28;20252;-78
2021/12/21 05:07:54;;;;;;;2.60;2.30;;;;;;;5.14;47.87;94868.59;4972281;28;20629;-79
2021/12/21 05:10:21;;;;;;;2.57;2.33;;;;;;;4.88;48.08;94832.28;4972197;28;20192;-76
2021/12/21 05:12:48;;;;;;;3.63;2.63;;;;;;;5.02;47.82;94859.25;4971185;28;20233;-79
2021/12/21 05:15:15;;;;;;;2.20;2.10;;;;;;;5.06;47.94;94887.75;4972094;28;20198;-76
2021/12/21 05:17:41;;;;;;;2.87;2.20;;;;;;;5.02;48.11;94875.25;4971883;28;20239;-77
2021/12/21 05:20:09;;;;;;;2.63;2.23;;;;;;;4.84;48.17;94846.06;4972356;28;20329;-77
2021/12/21 05:22:35;;;;;;;5.50;2.33;;;;;;;4.99;48.30;94867.84;4972323;28;20190;-80
2021/12/21 05:25:04;;;;;;;2.70;2.50;;;;;;;4.98;48.22;94883.16;4972320;28;20233;-78
2021/12/21 05:27:31;;;;;;;2.40;2.20;;;;;;;4.78;48.48;94859.91;4972476;28;20209;-76
2021/12/21 05:29:58;;;;;;;2.23;2.07;;;;;;;4.91;48.47;94880.19;4972238;28;20654;-76
2021/12/21 05:32:25;;;;;;;5.07;2.40;;;;;;;4.91;48.50;94879.41;4971469;28;20264;-79
2021/12/21 05:34:52;;;;;;;2.10;2.00;;;;;;;4.38;48.53;94795.81;4971934;28;20190;-81
2021/12/21 05:37:19;;;;;;;2.60;2.40;;;;;;;3.96;48.68;94736.88;4971466;28;20201;-77
2021/12/21 05:39:56;;;;;;;3.37;2.30;;;;;;;4.63;48.67;94838.13;4971709;28;20189;-79
2021/12/21 05:42:25;;;;;;;2.87;2.20;;;;;;;4.47;48.85;94838.25;4971642;28;20205;-80
2021/12/21 05:44:52;;;;;;;3.17;2.87;;;;;;;4.58;48.88;94851.97;4971808;28;20217;-79
2021/12/21 05:47:19;;;;;;;3.77;2.20;;;;;;;4.83;49.05;94894.28;4971699;28;20205;-78
2021/12/21 05:49:46;;;;;;;3.53;2.63;;;;;;;4.80;49.05;94889.41;4971497;28;20193;-78
2021/12/21 05:52:13;;;;;;;3.00;2.50;;;;;;;4.72;49.13;94882.31;4971448;28;20209;-81
2021/12/21 05:54:40;;;;;;;3.00;2.70;;;;;;;4.79;49.32;94898.72;4971546;28;20673;-86
2021/12/21 05:57:08;;;;;;;3.23;2.27;;;;;;;3.71;49.29;94741.84;4971998;28;20190;-83
2021/12/21 05:59:36;;;;;;;3.73;2.63;;;;;;;4.42;49.49;94855.47;4973258;28;20739;-81
2021/12/21 06:02:16;;;;;;;3.40;2.70;;;;;;;4.41;49.77;94856.38;4971878;28;20208;-90
2021/12/21 06:04:44;;;;;;;3.43;2.70;;;;;;;4.81;49.59;94913.84;4972049;28;20237;-86
2021/12/21 06:07:11;;;;;;;5.60;2.90;;;;;;;4.82;49.74;94923.88;4972782;28;20189;-83
2021/12/21 06:09:38;;;;;;;3.47;3.00;;;;;;;4.38;49.60;94855.75;4972375;28;20200;-84
2021/12/21 06:12:12;;;;;;;3.10;2.80;;;;;;;4.59;49.93;94884.00;4972237;28;20335;-88
2021/12/21 06:23:06;;;;;;;4.23;3.10;;;;;;;5.13;49.93;94945.53;4973622;28;20205;-82
2021/12/21 06:25:38;;;;;;;3.43;2.80;;;;;;;4.98;49.62;94909.31;4976229;28;20189;-81
2021/12/21 06:28:07;;;;;;;3.90;3.17;;;;;;;5.59;49.31;94957.75;4975652;28;20256;-80
2021/12/21 06:30:38;;;;;;;4.40;2.80;;;;;;;6.01;49.06;94968.53;4975460;28;20189;-84
2021/12/21 06:33:06;;;;;;;7.27;3.23;;;;;;;6.37;48.80;94967.75;4975287;28;20190;-83
2021/12/21 06:35:34;;;;;;;2.93;2.73;;;;;;;6.76;48.83;94961.63;4971821;28;20201;-81
2021/12/21 06:38:04;;;;;;;5.40;3.03;;;;;;;7.21;48.61;94953.38;4972598;28;20206;-86
2021/12/21 06:40:32;;;;;;;5.40;2.70;;;;;;;7.77;48.30;94974.69;4975927;28;20193;-78
2021/12/21 06:43:01;;;;;;;2.97;2.60;;;;;;;8.19;47.84;94984.31;4974691;28;20190;-80
2021/12/21 06:45:42;;;;;;;5.53;3.00;;;;;;;8.50;47.98;94973.44;4976720;28;20685;-79
2021/12/21 06:51:16;;;;;;;3.50;3.20;;;;;;;8.98;46.61;94997.78;4977562;28;20192;-84
2021/12/21 06:53:46;;;;;;;3.10;2.80;;;;;;;9.01;45.98;95000.91;4980633;28;20217;-82
2021/12/21 06:56:15;;;;;;;7.53;3.70;;;;;;;8.99;45.81;95002.78;4979457;28;20201;-80
2021/12/21 06:58:42;;;;;;;3.77;3.10;;;;;;;8.94;45.62;94997.25;4976195;28;20202;-82
2021/12/21 07:01:09;;;;;;;4.07;3.23;;;;;;;8.87;45.15;94995.28;4977098;28;20201;-77
2021/12/21 07:03:38;;;;;;;4.10;3.03;;;;;;;8.77;45.24;94992.66;4980173;28;20271;-82
2021/12/21 07:06:06;;;;;;;4.97;2.20;;;;;;;8.64;62.96;94974.13;4974184;28;20696;-81
2021/12/21 07:08:43;;;;;;;4.30;2.00;;;;;;;9.70;100.00;95002.25;4971470;28;20198;-82
2021/12/21 07:11:16;;;;;;;5.40;2.70;;;;;;;10.61;94.11;94995.56;4973300;28;20609;-86
2021/12/21 07:19:14;;;;;;;7.10;2.90;;;;;;;10.47;68.11;94973.75;4971308;28;20349;-77
2021/12/21 07:21:41;;;;;;;5.13;2.70;;;;;;;10.42;63.46;94992.03;4971266;28;20800;-85
2021/12/21 07:24:08;;;;;;;6.23;2.90;;;;;;;10.18;59.67;94984.63;4974964;28;20217;-90
2021/12/21 07:26:35;;;;;;;4.40;2.73;;;;;;;10.27;57.12;95001.78;4974713;28;20205;-82
2021/12/21 07:29:02;;;;;;;6.60;2.80;;;;;;;10.41;54.81;95012.63;4974157;28;20189;-83
2021/12/21 07:31:29;;;;;;;2.67;2.30;;;;;;;10.50;52.48;94993.94;4973950;28;20322;-84
2021/12/21 07:33:58;;;;;;;2.77;2.57;;;;;;;10.85;50.74;95018.28;4972098;28;20261;-87
2021/12/21 07:36:26;;;;;;;2.50;2.13;;;;;;;10.88;49.67;95018.00;4970744;28;20205;-80
2021/12/21 07:38:53;;;;;;;2.83;2.40;;;;;;;10.31;48.67;94935.88;4971718;28;20208;-88
2021/12/21 07:41:21;;;;;;;2.60;2.40;;;;;;;10.95;47.62;95025.00;4970934;28;20194;-80
2021/12/21 07:43:47;;;;;;;2.53;2.30;;;;;;;10.87;46.77;95013.81;4973465;28;20193;-81
2021/12/21 07:46:14;;;;;;;2.33;2.13;;;;;;;10.89;46.35;95027.31;4971496;28;20206;-79
2021/12/21 07:48:42;;;;;;;2.60;2.40;;;;;;;10.54;45.63;94975.66;4971359;28;20200;-85
2021/12/21 07:51:10;;;;;;;3.17;2.37;;;;;;;10.76;45.34;95012.19;4970384;28;20198;-80
2021/12/21 07:53:39;;;;;;;2.27;2.07;;;;;;;10.69;44.86;95013.66;4970191;28;20602;-80
2021/12/21 07:56:06;;;;;;;2.67;2.47;;;;;;;10.55;44.31;95013.06;4970674;28;20190;-80
2021/12/21 07:58:34;;;;;;;2.53;2.10;;;;;;;10.41;44.03;95022.84;4970627;28;20205;-86
2021/12/21 08:01:04;;;;;;;3.30;2.40;;;;;;;10.34;43.89;95025.09;4970172;28;20194;-84
2021/12/21 08:03:32;;;;;;;3.47;2.80;;;;;;;10.36;43.49;95032.63;4969936;28;20256;-84
2021/12/21 08:06:00;;;;;;;2.33;2.13;;;;;;;10.13;43.13;94999.53;4969455;28;20229;-84
2021/12/21 08:08:29;;;;;;;3.13;2.50;;;;;;;10.44;42.98;95046.38;4971704;28;20289;-80
2021/12/21 08:11:11;;;;;;;4.30;2.70;;;;;;;10.51;42.68;95056.94;4971412;28;20207;-79
2021/12/21 08:13:39;;;;;;;3.93;2.20;;;;;;;10.48;42.47;95037.53;4968618;28;20197;-82
2021/12/21 08:16:06;;;;;;;2.63;2.43;;;;;;;10.60;42.47;95047.66;4969810;28;20785;-78
2021/12/21 08:18:33;;;;;;;3.37;2.93;;;;;;;10.86;41.85;95046.28;4968997;28;20252;-80
2021/12/21 08:21:00;;;;;;;3.70;2.60;;;;;;;11.03;41.52;95055.06;4969632;28;20217;-83
2021/12/21 08:23:27;;;;;;;2.77;2.53;;;;;;;10.95;41.43;95055.72;4969592;28;20197;-78
2021/12/21 08:25:56;;;;;;;3.53;2.27;;;;;;;10.69;41.44;95047.69;4969992;28;20222;-78
2021/12/21 08:28:24;;;;;;;2.30;2.10;;;;;;;10.57;41.41;95061.50;4969509;28;20239;-81
2021/12/21 08:30:52;;;;;;;3.10;2.80;;;;;;;10.47;41.77;95073.47;4968550;28;20256;-78
2021/12/21 08:33:19;;;;;;;2.47;2.27;;;;;;;10.36;41.70;95076.88;4968225;28;20689;-78
2021/12/21 08:35:46;;;;;;;2.60;2.40;;;;;;;10.24;41.55;95073.63;4971411;28;20201;-78
2021/12/21 08:38:16;;;;;;;3.67;2.60;;;;;;;10.11;41.50;95074.72;4971453;28;20660;-81
2021/12/21 08:40:45;;;;;;;2.77;2.57;;;;;;;9.88;41.43;95076.56;4972282;28;20198;-81
2021/12/21 08:43:15;;;;;;;3.37;2.90;;;;;;;9.99;41.44;95082.44;4971644;28;20565;-82
2021/12/21 08:45:46;;;;;;;6.83;2.80;;;;;;;9.97;41.43;95080.94;4971388;28;20222;-81
2021/12/21 08:48:14;;;;;;;3.50;2.73;;;;;;;10.07;41.59;95081.03;4971371;28;20201;-81
2021/12/21 08:50:42;;;;;;;2.57;2.37;;;;;;;10.03;41.32;95070.22;4971695;28;20209;-86
2021/12/21 08:53:09;;;;;;;2.60;2.40;;;;;;;10.12;41.22;95077.16;4971576;28;20197;-82
2021/12/21 08:55:36;;;;;;;2.80;2.57;;;;;;;9.89;41.18;95045.81;4971924;28;20198;-82
2021/12/21 08:58:03;;;;;;;4.10;2.20;;;;;;;10.06;41.12;95082.78;4970556;28;20206;-82
2021/12/21 09:00:30;;;;;;;3.90;2.40;;;;;;;10.04;40.90;95077.75;4971425;28;20193;-83
2021/12/21 09:02:58;;;;;;;2.33;2.13;;;;;;;9.96;40.86;95092.09;4971381;28;20201;-84
2021/12/21 09:05:27;;;;;;;2.27;2.10;;;;;;;9.88;40.81;95090.16;4971231;28;20229;-80
2021/12/21 09:07:55;;;;;;;2.27;2.07;;;;;;;9.77;40.67;95092.78;4971108;28;20256;-80
2021/12/21 09:10:24;;;;;;;4.90;2.27;;;;;;;9.60;40.45;95086.47;4971277;28;20202;-80
2021/12/21 09:12:52;;;;;;;3.50;2.10;;;;;;;9.47;40.33;95085.81;4971793;28;20234;-80
2021/12/21 09:15:20;;;;;;;3.03;2.27;;;;;;;9.32;40.22;95077.59;4974759;28;20190;-86
2021/12/21 09:17:48;;;;;;;2.70;2.07;;;;;;;9.25;40.01;95089.25;4984054;28;20190;-86
2021/12/21 09:20:19;;;;;;;3.03;2.20;;;;;;;9.17;40.04;95078.81;4971576;28;20205;-87
2021/12/21 09:22:46;;;;;;;3.80;2.20;;;;;;;8.92;40.26;95065.41;4971915;28;20197;-86
2021/12/21 09:25:14;;;;;;;2.20;2.00;;;;;;;8.38;40.30;94989.69;4971096;28;20711;-87
2021/12/21 09:27:41;;;;;;;2.50;2.10;;;;;;;8.52;40.36;95020.03;4971878;28;20190;-87
2021/12/21 09:30:11;;;;;;;5.03;2.03;;;;;;;7.83;40.27;94921.69;4972110;28;20189;-87
2021/12/21 09:32:39;;;;;;;2.27;2.07;;;;;;;8.74;40.17;95071.91;4968671;28;20197;-85
2021/12/21 09:35:06;;;;;;;2.87;2.17;;;;;;;8.83;40.11;95091.63;4968181;28;20198;-82
2021/12/21 09:37:35;;;;;;;2.33;2.10;;;;;;;8.90;40.15;95091.97;4968788;28;20653;-84
2021/12/21 09:40:05;;;;;;;1.90;1.80;;;;;;;8.93;40.07;95084.88;4971029;28;20225;-84
2021/12/21 09:42:33;;;;;;;3.33;1.90;;;;;;;8.95;40.25;95092.41;4971493;28;20289;-81
2021/12/21 09:45:01;;;;;;;2.20;2.00;;;;;;;8.89;40.44;95092.88;4970756;28;20569;-87
2021/12/21 09:47:28;;;;;;;2.37;2.17;;;;;;;8.40;40.46;95030.34;4970506;28;20194;-82
2021/12/21 09:49:57;;;;;;;2.60;2.40;;;;;;;8.66;40.51;95092.88;4969625;28;20198;-80
2021/12/21 09:52:29;;;;;;;2.50;2.30;;;;;;;8.54;40.48;95092.06;4971194;28;20201;-80
2021/12/21 09:54:58;;;;;;;4.70;2.10;;;;;;;8.43;40.91;95092.09;4970708;28;20248;-79
2021/12/21 09:57:25;;;;;;;2.50;2.30;;;;;;;8.32;40.83;95092.03;4967716;28;20205;-77
2021/12/21 09:59:52;;;;;;;2.27;2.07;;;;;;;8.21;40.87;95097.13;4968003;28;20202;-78
2021/12/21 10:02:21;;;;;;;3.10;2.23;;;;;;;8.03;41.08;95086.53;4967731;28;20589;-79
2021/12/21 10:04:51;;;;;;;4.37;2.40;;;;;;;8.01;41.45;95093.47;4967477;28;20218;-79
2021/12/21 10:07:20;;;;;;;2.30;2.10;;;;;;;7.94;41.28;95090.56;4967459;28;20205;-79
2021/12/21 10:09:47;;;;;;;2.37;2.10;;;;;;;7.92;41.29;95087.31;4968272;28;20241;-80
2021/12/21 10:12:28;;;;;;;3.07;2.40;;;;;;;7.97;41.08;95082.69;4967924;28;20241;-81
2021/12/21 10:15:05;;;;;;;3.03;2.57;;;;;;;7.77;40.90;95033.25;4966840;28;20225;-79
2021/12/21 10:17:35;;;;;;;3.37;2.37;;;;;;;7.86;40.85;95036.84;4967626;28;20202;-81
2021/12/21 10:20:03;;;;;;;2.50;2.30;;;;;;;7.83;40.85;95021.00;4967867;28;20198;-80
2021/12/21 10:22:30;;;;;;;2.10;2.00;;;;;;;8.09;40.98;95081.00;4968156;28;20566;-81
2021/12/21 10:24:58;;;;;;;2.43;2.23;;;;;;;7.92;41.29;95068.69;4967788;28;20225;-82
2021/12/21 10:27:27;;;;;;;2.53;2.33;;;;;;;7.21;41.20;94966.09;4967934;28;20231;-80
2021/12/21 10:29:55;;;;;;;2.10;1.90;;;;;;;7.96;41.34;95093.81;4967985;28;20233;-81
2021/12/21 10:32:25;;;;;;;2.40;2.20;;;;;;;7.18;41.55;94969.69;4968598;28;20197;-79
2021/12/21 10:34:58;;;;;;;6.17;2.37;;;;;;;7.65;41.54;95051.97;4970462;28;20204;-84
2021/12/21 10:37:28;;;;;;;4.30;2.67;;;;;;;7.88;41.66;95091.00;4966852;28;20197;-80
2021/12/21 10:40:16;;;;;;;2.70;2.47;;;;;;;7.80;41.70;95086.47;4967596;28;20206;-79
2021/12/21 10:42:54;;;;;;;2.53;2.33;;;;;;;7.71;41.76;95076.97;4976679;28;20240;-79
2021/12/21 10:45:27;;;;;;;3.23;2.30;;;;;;;7.89;41.94;95099.47;4975227;28;20224;-80
2021/12/21 10:47:53;;;;;;;3.83;2.63;;;;;;;7.68;41.96;95061.09;4967415;28;20205;-80
2021/12/21 10:50:21;;;;;;;2.77;2.57;;;;;;;8.03;41.81;95107.75;4967528;28;20217;-80
2021/12/21 10:52:53;;;;;;;3.73;2.70;;;;;;;8.04;41.99;95085.63;4968085;28;20314;-80
2021/12/21 10:55:28;;;;;;;2.90;2.60;;;;;;;8.27;41.82;95092.38;4967206;28;20209;-81
2021/12/21 10:58:11;;;;;;;2.70;2.50;;;;;;;8.39;41.58;95100.88;4967750;28;20189;-81
2021/12/21 11:00:44;;;;;;;5.67;2.63;;;;;;;8.36;41.69;95069.69;4964154;28;20249;-81
2021/12/21 11:03:11;;;;;;;3.47;3.17;;;;;;;8.42;41.64;95062.44;4962985;28;20296;-80
2021/12/21 11:05:39;;;;;;;2.57;2.40;;;;;;;8.44;41.85;95064.84;4968909;28;20233;-79
2021/12/21 11:08:07;;;;;;;4.13;2.60;;;;;;;8.43;41.50;95068.34;4969661;28;20194;-79
2021/12/21 11:10:37;;;;;;;2.90;2.70;;;;;;;8.27;41.30;95033.78;4972418;28;20198;-80
2021/12/21 11:13:08;;;;;;;4.23;3.10;;;;;;;8.56;41.35;95088.63;4973134;28;20230;-79
2021/12/21 11:15:37;;;;;;;5.20;2.97;;;;;;;8.51;41.20;95084.69;4972694;28;20197;-79
2021/12/21 11:18:07;;;;;;;3.17;2.73;;;;;;;8.49;41.00;95083.97;4973388;28;20201;-79
2021/12/21 11:20:36;;;;;;;2.70;2.50;;;;;;;8.51;40.87;95087.22;4972648;28;20209;-80
2021/12/21 11:23:04;;;;;;;3.43;2.47;;;;;;;8.36;40.62;95062.84;4972858;28;20198;-80
2021/12/21 11:25:32;;;;;;;2.90;2.70;;;;;;;8.44;40.73;95086.06;4972803;28;20217;-80
2021/12/21 11:28:01;;;;;;;3.07;2.43;;;;;;;8.33;40.85;95082.66;4970816;28;20681;-80
2021/12/21 11:30:30;;;;;;;3.10;2.57;;;;;;;8.19;40.86;95074.28;4972661;28;20202;-80
2021/12/21 11:32:57;;;;;;;3.33;2.80;;;;;;;8.07;41.11;95070.09;4972817;28;20198;-80
2021/12/21 11:38:13;;;;;;;2.87;2.40;;;;;;;7.83;40.86;95077.81;4972876;28;20217;-80
2021/12/21 11:40:43;;;;;;;3.90;2.93;;;;;;;7.74;40.92;95069.09;4972144;28;20196;-80
2021/12/21 11:43:34;;;;;;;2.83;2.20;;;;;;;7.59;40.88;95061.75;4972390;28;20697;-80
2021/12/21 11:46:07;;;;;;;3.10;2.90;;;;;;;7.22;40.39;94996.53;4931280;29;20258;-80
2021/12/21 11:48:44;;;;;;;3.40;3.00;;;;;;;7.43;40.70;95039.97;4931711;29;20199;-79
2021/12/21 11:51:13;;;;;;;3.13;2.83;;;;;;;7.52;40.49;95046.94;4928860;29;20242;-79
2021/12/21 11:53:40;;;;;;;2.87;2.67;;;;;;;7.72;40.21;95067.59;4929862;29;20690;-79
2021/12/21 11:56:09;;;;;;;2.80;2.50;;;;;;;7.66;40.19;95043.41;4931207;29;20281;-81
2021/12/21 11:58:39;;;;;;;3.40;3.10;;;;;;;7.62;39.78;95020.81;4931982;29;20717;-79
2021/12/21 12:01:16;;;;;;;3.83;2.70;;;;;;;7.84;39.75;95050.63;4931729;29;20203;-79
2021/12/21 12:03:55;;;;;;;2.63;2.33;;;;;;;7.99;39.62;95072.41;4931284;29;20198;-80
2021/12/21 12:06:22;;;;;;;2.37;2.10;;;;;;;7.97;39.38;95069.16;4929496;29;20227;-79
2021/12/21 12:08:52;;;;;;;2.77;2.57;;;;;;;7.93;39.74;95076.22;4931109;29;20211;-78
2021/12/21 12:11:23;;;;;;;2.77;2.57;;;;;;;7.94;39.81;95074.47;4931386;29;20330;-80
2021/12/21 12:13:51;;;;;;;3.13;2.30;;;;;;;7.97;39.75;95076.81;4931245;29;20277;-80
2021/12/21 12:16:19;;;;;;;3.63;2.33;;;;;;;8.05;39.64;95082.94;4931161;29;20617;-77
2021/12/21 12:18:47;;;;;;;3.13;2.20;;;;;;;8.05;39.62;95064.31;4930333;29;20195;-79
2021/12/21 12:21:17;;;;;;;3.13;2.83;;;;;;;8.30;39.33;95099.00;4929770;29;20202;-79